Time,TemperatureF,DewpointF,PressureIn,WindDirection,WindDirectionDegrees,WindSpeedMPH,WindSpeedGustMPH,Humidity,HourlyPrecipIn,Conditions,Clouds,dailyrainin,SolarRadiationWatts/m^2,SoftwareType,DateUTC
2013-04-07 00:02:00,31.0,26.0,-100.00,East,96,0.0,4.0,81,0.00,,,0.06,0.000000,,2013-04-07 07:02:00,
2013-04-07 00:12:00,31.0,26.0,-100.00,East,96,0.0,4.0,81,0.00,,,0.06,0.000000,,2013-04-07 07:12:00,
2013-04-07 00:22:00,31.0,26.0,-100.00,East,96,0.0,4.0,81,0.00,,,0.06,0.000000,,2013-04-07 07:22:00,
2013-04-07 00:32:00,31.0,26.0,-100.00,East,96,0.0,4.0,81,0.00,,,0.06,0.000000,,2013-04-07 07:32:00,
2013-04-07 00:52:00,31.0,26.0,-100.00,NW,316,1.0,2.0,82,-99.99,,,0.06,0.000000,,2013-04-07 07:52:00,
2013-04-07 01:02:00,31.0,26.0,-100.00,NW,316,1.0,2.0,82,-99.99,,,0.06,0.000000,,2013-04-07 08:02:00,
2013-04-07 01:12:00,31.0,26.0,-100.00,NW,316,1.0,2.0,82,-99.99,,,0.06,0.000000,,2013-04-07 08:12:00,
2013-04-07 01:22:00,31.0,26.0,-100.00,NW,316,1.0,2.0,82,-99.99,,,0.06,0.000000,,2013-04-07 08:22:00,
2013-04-07 01:32:00,31.0,26.0,-100.00,NW,316,1.0,2.0,82,-99.99,,,0.06,0.000000,,2013-04-07 08:32:00,
2013-04-07 01:53:00,32.0,27.0,-100.00,NW,307,2.0,3.0,82,0.00,,,0.06,0.000000,,2013-04-07 08:53:00,
2013-04-07 02:02:00,32.0,27.0,-100.00,NW,307,2.0,3.0,82,0.00,,,0.06,0.000000,,2013-04-07 09:02:00,
2013-04-07 02:12:00,32.0,27.0,-100.00,NW,307,2.0,3.0,82,0.00,,,0.06,0.000000,,2013-04-07 09:12:00,
2013-04-07 02:22:00,32.0,27.0,-100.00,NW,307,2.0,3.0,82,0.00,,,0.06,0.000000,,2013-04-07 09:22:00,
2013-04-07 02:33:00,32.0,27.0,-100.00,NW,307,2.0,3.0,82,0.00,,,0.06,0.000000,,2013-04-07 09:33:00,
2013-04-07 02:53:00,30.0,29.0,-100.00,SW,232,2.0,5.0,95,0.00,,,0.06,0.000000,,2013-04-07 09:53:00,
2013-04-07 03:03:00,30.0,29.0,-100.00,SW,232,2.0,5.0,95,0.00,,,0.06,0.000000,,2013-04-07 10:03:00,
2013-04-07 03:13:00,30.0,29.0,-100.00,SW,232,2.0,5.0,95,0.00,,,0.06,0.000000,,2013-04-07 10:13:00,
2013-04-07 03:22:00,30.0,29.0,-100.00,SW,232,2.0,5.0,95,0.00,,,0.06,0.000000,,2013-04-07 10:22:00,
2013-04-07 03:32:00,30.0,29.0,-100.00,SW,232,2.0,5.0,95,0.00,,,0.06,0.000000,,2013-04-07 10:32:00,
2013-04-07 03:54:00,29.0,28.0,-100.00,SSW,200,2.0,5.0,96,0.00,,,0.06,0.000000,,2013-04-07 10:54:00,
2013-04-07 04:02:00,29.0,28.0,-100.00,SSW,200,2.0,5.0,96,0.00,,,0.06,0.000000,,2013-04-07 11:02:00,
2013-04-07 04:32:00,29.0,28.0,-100.00,SSW,200,2.0,5.0,96,0.00,,,0.06,0.000000,,2013-04-07 11:32:00,
2013-04-07 04:53:00,29.0,28.0,-100.00,SW,225,2.0,5.0,96,0.00,,,0.06,0.000000,,2013-04-07 11:53:00,
2013-04-07 05:02:00,29.0,28.0,-100.00,SW,225,2.0,5.0,96,0.00,,,0.06,0.000000,,2013-04-07 12:02:00,
2013-04-07 05:12:00,29.0,28.0,-100.00,SW,225,2.0,5.0,96,0.00,,,0.06,0.000000,,2013-04-07 12:12:00,
2013-04-07 05:22:00,29.0,28.0,-100.00,SW,225,2.0,5.0,96,0.00,,,0.06,0.000000,,2013-04-07 12:22:00,
2013-04-07 05:32:00,29.0,28.0,-100.00,SW,225,2.0,5.0,96,0.00,,,0.06,0.000000,,2013-04-07 12:32:00,
2013-04-07 05:53:00,28.0,27.0,-100.00,SW,229,1.0,4.0,96,0.00,,,0.06,0.000000,,2013-04-07 12:53:00,
2013-04-07 06:03:00,28.0,27.0,-100.00,SW,229,1.0,4.0,96,0.00,,,0.06,0.000000,,2013-04-07 13:03:00,
2013-04-07 06:12:00,28.0,27.0,-100.00,SW,229,1.0,4.0,96,0.00,,,0.06,0.000000,,2013-04-07 13:12:00,
2013-04-07 06:22:00,28.0,27.0,-100.00,SW,229,1.0,4.0,96,0.00,,,0.06,0.000000,,2013-04-07 13:22:00,
2013-04-07 06:32:00,28.0,27.0,-100.00,SW,229,1.0,4.0,96,0.00,,,0.06,0.000000,,2013-04-07 13:32:00,
2013-04-07 06:53:00,28.0,27.0,-100.00,SSW,193,2.0,4.0,96,0.00,,,0.06,0.000000,,2013-04-07 13:53:00,
2013-04-07 07:02:00,28.0,27.0,-100.00,SSW,193,2.0,4.0,96,0.00,,,0.06,0.000000,,2013-04-07 14:02:00,
2013-04-07 07:12:00,28.0,27.0,-100.00,SSW,193,2.0,4.0,96,0.00,,,0.06,0.000000,,2013-04-07 14:12:00,
2013-04-07 07:22:00,28.0,27.0,-100.00,SSW,193,2.0,4.0,96,0.00,,,0.06,0.000000,,2013-04-07 14:22:00,
2013-04-07 07:32:00,28.0,27.0,-100.00,SSW,193,2.0,4.0,96,0.00,,,0.06,0.000000,,2013-04-07 14:32:00,
2013-04-07 07:54:00,29.0,28.0,-100.00,WSW,245,2.0,5.0,96,0.00,,,0.06,4.000000,,2013-04-07 14:54:00,
2013-04-07 08:02:00,29.0,28.0,-100.00,WSW,245,2.0,5.0,96,0.00,,,0.06,4.000000,,2013-04-07 15:02:00,
2013-04-07 08:12:00,29.0,28.0,-100.00,WSW,245,2.0,5.0,96,0.00,,,0.06,4.000000,,2013-04-07 15:12:00,
2013-04-07 08:22:00,29.0,28.0,-100.00,WSW,245,2.0,5.0,96,0.00,,,0.06,4.000000,,2013-04-07 15:22:00,
2013-04-07 08:33:00,29.0,28.0,-100.00,WSW,245,2.0,5.0,96,0.00,,,0.06,4.000000,,2013-04-07 15:33:00,
2013-04-07 08:55:00,30.0,29.0,-100.00,SSE,157,0.0,5.0,95,0.00,,,0.06,9.000000,,2013-04-07 15:55:00,
2013-04-07 09:03:00,30.0,29.0,-100.00,SSE,157,0.0,5.0,95,0.00,,,0.06,9.000000,,2013-04-07 16:03:00,
2013-04-07 09:13:00,30.0,29.0,-100.00,SSE,157,0.0,5.0,95,0.00,,,0.06,9.000000,,2013-04-07 16:13:00,
2013-04-07 09:23:00,30.0,29.0,-100.00,SSE,157,0.0,5.0,95,0.00,,,0.06,9.000000,,2013-04-07 16:23:00,
2013-04-07 09:32:00,30.0,29.0,-100.00,SSE,157,0.0,5.0,95,0.00,,,0.06,9.000000,,2013-04-07 16:32:00,
2013-04-07 09:54:00,32.0,29.0,-100.00,NNE,19,0.0,4.0,90,0.00,,,0.06,18.000000,,2013-04-07 16:54:00,
2013-04-07 10:03:00,32.0,29.0,-100.00,NNE,19,0.0,4.0,90,0.00,,,0.06,18.000000,,2013-04-07 17:03:00,
2013-04-07 10:12:00,32.0,29.0,-100.00,NNE,19,0.0,4.0,90,0.00,,,0.06,18.000000,,2013-04-07 17:12:00,
2013-04-07 10:22:00,32.0,29.0,-100.00,NNE,19,0.0,4.0,90,0.00,,,0.06,18.000000,,2013-04-07 17:22:00,
2013-04-07 10:32:00,32.0,29.0,-100.00,NNE,19,0.0,4.0,90,0.00,,,0.06,18.000000,,2013-04-07 17:32:00,
2013-04-07 10:53:00,35.0,31.0,-100.00,NNE,17,4.0,9.0,84,0.00,,,0.01,45.000000,,2013-04-07 17:53:00,
2013-04-07 11:02:00,35.0,31.0,-100.00,NNE,17,4.0,9.0,84,0.00,,,0.01,45.000000,,2013-04-07 18:02:00,
2013-04-07 11:13:00,35.0,31.0,-100.00,NNE,17,4.0,9.0,84,0.00,,,0.01,45.000000,,2013-04-07 18:13:00,
2013-04-07 11:22:00,35.0,31.0,-100.00,NNE,17,4.0,9.0,84,0.00,,,0.01,45.000000,,2013-04-07 18:22:00,
2013-04-07 11:32:00,35.0,31.0,-100.00,NNE,17,4.0,9.0,84,0.00,,,0.01,45.000000,,2013-04-07 18:32:00,
2013-04-07 11:53:00,35.0,28.0,-100.00,SSE,151,6.0,17.0,76,0.05,,,0.06,250.000000,,2013-04-07 18:53:00,
2013-04-07 12:02:00,35.0,28.0,-100.00,SSE,151,6.0,17.0,76,0.05,,,0.06,250.000000,,2013-04-07 19:02:00,
2013-04-07 12:12:00,35.0,28.0,-100.00,SSE,151,6.0,17.0,76,0.05,,,0.06,250.000000,,2013-04-07 19:12:00,
2013-04-07 12:22:00,35.0,28.0,-100.00,SSE,151,6.0,17.0,76,0.05,,,0.06,250.000000,,2013-04-07 19:22:00,
2013-04-07 12:32:00,35.0,28.0,-100.00,SSE,151,6.0,17.0,76,0.05,,,0.06,250.000000,,2013-04-07 19:32:00,
2013-04-07 12:55:00,42.0,30.0,-100.00,ESE,102,5.0,19.0,61,0.29,,,0.35,746.000000,,2013-04-07 19:55:00,
2013-04-07 13:02:00,42.0,30.0,-100.00,ESE,102,5.0,19.0,61,0.29,,,0.35,746.000000,,2013-04-07 20:02:00,
2013-04-07 13:12:00,42.0,30.0,-100.00,ESE,102,5.0,19.0,61,0.29,,,0.35,746.000000,,2013-04-07 20:12:00,
2013-04-07 13:22:00,42.0,30.0,-100.00,ESE,102,5.0,19.0,61,0.29,,,0.35,746.000000,,2013-04-07 20:22:00,
2013-04-07 13:32:00,42.0,30.0,-100.00,ESE,102,5.0,19.0,61,0.29,,,0.35,746.000000,,2013-04-07 20:32:00,
2013-04-07 13:53:00,37.0,26.0,-100.00,ENE,70,9.0,23.0,63,0.05,,,0.39,652.000000,,2013-04-07 20:53:00,
2013-04-07 14:02:00,37.0,26.0,-100.00,ENE,70,9.0,23.0,63,0.05,,,0.39,652.000000,,2013-04-07 21:02:00,
2013-04-07 14:12:00,37.0,26.0,-100.00,ENE,70,9.0,23.0,63,0.05,,,0.39,652.000000,,2013-04-07 21:12:00,
2013-04-07 14:22:00,37.0,26.0,-100.00,ENE,70,9.0,23.0,63,0.05,,,0.39,652.000000,,2013-04-07 21:22:00,
2013-04-07 14:33:00,37.0,26.0,-100.00,ENE,70,9.0,23.0,63,0.05,,,0.39,652.000000,,2013-04-07 21:33:00,
2013-04-07 14:55:00,37.0,26.0,-100.00,NW,326,7.0,28.0,65,0.00,,,0.39,577.000000,,2013-04-07 21:55:00,
2013-04-07 15:03:00,37.0,26.0,-100.00,NW,326,7.0,28.0,65,0.00,,,0.39,577.000000,,2013-04-07 22:03:00,
2013-04-07 15:13:00,37.0,26.0,-100.00,NW,326,7.0,28.0,65,0.00,,,0.39,577.000000,,2013-04-07 22:13:00,
2013-04-07 15:23:00,37.0,26.0,-100.00,NW,326,7.0,28.0,65,0.00,,,0.39,577.000000,,2013-04-07 22:23:00,
2013-04-07 15:33:00,37.0,26.0,-100.00,NW,326,7.0,28.0,65,0.00,,,0.39,577.000000,,2013-04-07 22:33:00,
2013-04-07 15:53:00,37.0,26.0,-100.00,NNW,327,6.0,23.0,64,0.00,,,0.39,423.000000,,2013-04-07 22:53:00,
2013-04-07 16:03:00,37.0,26.0,-100.00,NNW,327,6.0,23.0,64,0.00,,,0.39,423.000000,,2013-04-07 23:03:00,
2013-04-07 16:12:00,37.0,26.0,-100.00,NNW,327,6.0,23.0,64,0.00,,,0.39,423.000000,,2013-04-07 23:12:00,
2013-04-07 16:22:00,37.0,26.0,-100.00,NNW,327,6.0,23.0,64,0.00,,,0.39,423.000000,,2013-04-07 23:22:00,
2013-04-07 16:32:00,37.0,26.0,-100.00,NNW,327,6.0,23.0,64,0.00,,,0.39,423.000000,,2013-04-07 23:32:00,
2013-04-07 16:52:00,37.0,26.0,-100.00,NNW,329,5.0,23.0,63,0.00,,,0.39,285.000000,,2013-04-07 23:52:00,
2013-04-07 17:02:00,37.0,26.0,-100.00,NNW,329,5.0,23.0,63,0.00,,,0.39,285.000000,,2013-04-08 00:02:00,
2013-04-07 17:12:00,37.0,26.0,-100.00,NNW,329,5.0,23.0,63,0.00,,,0.39,285.000000,,2013-04-08 00:12:00,
2013-04-07 17:22:00,37.0,26.0,-100.00,NNW,329,5.0,23.0,63,0.00,,,0.39,285.000000,,2013-04-08 00:22:00,
2013-04-07 17:32:00,37.0,26.0,-100.00,NNW,329,5.0,23.0,63,0.00,,,0.39,285.000000,,2013-04-08 00:32:00,
2013-04-07 17:53:00,36.0,25.0,-100.00,NNW,329,4.0,12.0,63,0.00,,,0.39,271.000000,,2013-04-08 00:53:00,
2013-04-07 18:02:00,36.0,25.0,-100.00,NNW,329,4.0,12.0,63,0.00,,,0.39,271.000000,,2013-04-08 01:02:00,
2013-04-07 18:12:00,36.0,25.0,-100.00,NNW,329,4.0,12.0,63,0.00,,,0.39,271.000000,,2013-04-08 01:12:00,
2013-04-07 18:22:00,36.0,25.0,-100.00,NNW,329,4.0,12.0,63,0.00,,,0.39,271.000000,,2013-04-08 01:22:00,
2013-04-07 18:32:00,36.0,25.0,-100.00,NNW,329,4.0,12.0,63,0.00,,,0.39,271.000000,,2013-04-08 01:32:00,
2013-04-07 18:55:00,35.0,25.0,-100.00,NNW,330,3.0,10.0,67,0.00,,,0.39,120.000000,,2013-04-08 01:55:00,
2013-04-07 19:02:00,35.0,25.0,-100.00,NNW,330,3.0,10.0,67,0.00,,,0.39,120.000000,,2013-04-08 02:02:00,
2013-04-07 19:12:00,35.0,25.0,-100.00,NNW,330,3.0,10.0,67,0.00,,,0.39,120.000000,,2013-04-08 02:12:00,
2013-04-07 19:22:00,35.0,25.0,-100.00,NNW,330,3.0,10.0,67,0.00,,,0.39,120.000000,,2013-04-08 02:22:00,
2013-04-07 19:32:00,35.0,25.0,-100.00,NNW,330,3.0,10.0,67,0.00,,,0.39,120.000000,,2013-04-08 02:32:00,
2013-04-07 20:06:00,32.0,23.0,-100.00,NNW,329,2.0,8.0,69,0.00,,,0.39,53.000000,,2013-04-08 03:06:00,
2013-04-07 20:33:00,32.0,23.0,-100.00,NNW,329,2.0,8.0,69,0.00,,,0.39,53.000000,,2013-04-08 03:33:00,
2013-04-07 21:03:00,30.0,21.0,-100.00,NNW,329,2.0,7.0,70,0.00,,,0.39,1.000000,,2013-04-08 04:03:00,
2013-04-07 21:12:00,30.0,21.0,-100.00,NNW,329,2.0,7.0,70,0.00,,,0.39,1.000000,,2013-04-08 04:12:00,
2013-04-07 21:23:00,30.0,21.0,-100.00,NNW,329,2.0,7.0,70,0.00,,,0.39,1.000000,,2013-04-08 04:23:00,
2013-04-07 21:32:00,30.0,21.0,-100.00,NNW,329,2.0,7.0,70,0.00,,,0.39,1.000000,,2013-04-08 04:32:00,
2013-04-07 21:53:00,27.0,23.0,-100.00,NNW,329,1.0,5.0,84,0.00,,,0.39,0.000000,,2013-04-08 04:53:00,
2013-04-07 22:02:00,27.0,23.0,-100.00,NNW,329,1.0,5.0,84,0.00,,,0.39,0.000000,,2013-04-08 05:02:00,
2013-04-07 22:32:00,27.0,23.0,-100.00,NNW,329,1.0,5.0,84,0.00,,,0.39,0.000000,,2013-04-08 05:32:00,
2013-04-07 22:52:00,27.0,21.0,-100.00,NNW,329,1.0,4.0,79,0.00,,,0.39,0.000000,,2013-04-08 05:52:00,
2013-04-07 23:02:00,27.0,21.0,-100.00,NNW,329,1.0,4.0,79,0.00,,,0.39,0.000000,,2013-04-08 06:02:00,
2013-04-07 23:12:00,27.0,21.0,-100.00,NNW,329,1.0,4.0,79,0.00,,,0.39,0.000000,,2013-04-08 06:12:00,
2013-04-07 23:22:00,27.0,21.0,-100.00,NNW,329,1.0,4.0,79,0.00,,,0.39,0.000000,,2013-04-08 06:22:00,
2013-04-07 23:32:00,27.0,21.0,-100.00,NNW,329,1.0,4.0,79,0.00,,,0.39,0.000000,,2013-04-08 06:32:00,
2013-04-07 23:52:00,27.0,21.0,-100.00,NNW,329,1.0,3.0,77,0.00,,,0.39,0.000000,,2013-04-08 06:52:00,